createdAt,value
2019-01-03T00:00:07.061Z,71.79
2019-01-03T00:03:16.929Z,72.26
2019-01-03T00:06:26.173Z,72.10
2019-01-03T00:22:45.127Z,71.96
2019-01-03T00:26:03.179Z,71.66
2019-01-03T00:29:17.948Z,72.17
2019-01-03T00:32:39.061Z,71.76
2019-01-03T00:36:01.811Z,71.12
2019-01-03T00:39:20.970Z,71.54
2019-01-03T00:42:31.115Z,71.42
2019-01-03T00:45:40.167Z,72.15
2019-01-03T00:49:02.529Z,71.87
2019-01-03T00:52:08.625Z,72.08
2019-01-03T00:55:20.387Z,72.29
2019-01-03T00:58:44.500Z,72.69
2019-01-03T01:01:53.907Z,72.57
2019-01-03T01:05:08.488Z,71.89
2019-01-03T01:08:30.675Z,72.41
2019-01-03T01:11:45.500Z,73.03
2019-01-03T01:14:57.843Z,74.06
2019-01-03T01:18:22.375Z,74.27
2019-01-03T01:21:44.605Z,74.68
2019-01-03T01:25:06.737Z,74.58
2019-01-03T01:28:17.004Z,74.81
2019-01-03T01:31:23.102Z,74.50
2019-01-03T01:34:45.616Z,74.09
2019-01-03T01:37:57.715Z,73.88
2019-01-03T01:41:04.086Z,73.88
2019-01-03T01:44:27.974Z,74.00
2019-01-03T01:47:46.032Z,73.80
2019-01-03T01:51:07.831Z,73.98
2019-01-03T01:54:30.487Z,73.76
2019-01-03T01:57:45.197Z,73.84
2019-01-03T02:00:51.285Z,73.80
2019-01-03T02:04:03.423Z,73.02
2019-01-03T02:07:12.252Z,73.16
2019-01-03T02:10:21.040Z,73.84
2019-01-03T02:13:43.667Z,74.24
2019-01-03T02:16:55.804Z,74.19
2019-01-03T02:20:01.891Z,74.53
2019-01-03T02:23:16.736Z,74.09
2019-01-03T02:26:26.713Z,74.29
2019-01-03T02:29:31.241Z,73.77
2019-01-03T02:32:53.110Z,73.93
2019-01-03T02:36:14.598Z,74.45
2019-01-03T02:39:23.247Z,74.05
2019-01-03T02:42:35.063Z,74.42
2019-01-03T02:45:44.088Z,74.31
2019-01-03T02:48:56.152Z,74.37
2019-01-03T02:52:02.518Z,74.73
2019-01-03T02:55:20.533Z,75.12
2019-01-03T02:58:44.952Z,74.75
2019-01-03T03:02:01.117Z,74.68
2019-01-03T03:05:07.619Z,74.71
2019-01-03T03:08:19.523Z,75.20
2019-01-03T03:11:41.919Z,75.56
2019-01-03T03:14:48.016Z,75.64
2019-01-03T03:18:03.261Z,76.01
2019-01-03T03:21:09.346Z,76.06
2019-01-03T03:24:21.573Z,75.99
2019-01-03T03:27:39.569Z,75.52
2019-01-03T03:31:02.080Z,75.48
2019-01-03T03:34:17.141Z,74.65
2019-01-03T03:37:39.271Z,74.54
2019-01-03T03:41:03.660Z,74.17
2019-01-03T03:44:18.601Z,74.03
2019-01-03T03:47:36.539Z,74.23
2019-01-03T03:50:42.628Z,74.51
2019-01-03T03:53:51.140Z,74.63
2019-01-03T03:57:13.918Z,74.83
2019-01-03T04:00:36.298Z,74.12
2019-01-03T04:03:58.601Z,74.23
2019-01-03T04:07:13.993Z,74.18
2019-01-03T04:10:24.446Z,74.21
2019-01-03T04:13:36.540Z,73.92
2019-01-03T04:16:58.676Z,74.35
2019-01-03T04:20:21.144Z,74.65
2019-01-03T04:23:44.999Z,74.12
2019-01-03T04:27:08.992Z,74.10
2019-01-03T04:30:15.089Z,74.34
2019-01-03T04:33:24.089Z,74.92
2019-01-03T04:36:32.889Z,75.01
2019-01-03T04:39:41.677Z,74.81
2019-01-03T04:42:47.770Z,74.89
2019-01-03T04:45:56.538Z,75.56
2019-01-03T04:49:02.614Z,75.34
2019-01-03T04:52:11.415Z,74.90
2019-01-03T04:55:33.528Z,75.07
2019-01-03T04:58:40.749Z,74.87
2019-01-03T05:01:55.721Z,74.58
2019-01-03T05:05:17.050Z,75.20
2019-01-03T05:08:25.776Z,75.13
2019-01-03T05:11:34.791Z,74.85
2019-01-03T05:14:40.870Z,74.85
2019-01-03T05:18:00.174Z,74.69
2019-01-03T05:21:24.700Z,74.75
2019-01-03T05:24:42.957Z,74.60
2019-01-03T05:28:04.594Z,74.63
2019-01-03T05:31:17.313Z,75.00
2019-01-03T05:34:23.386Z,74.68
2019-01-03T05:37:34.912Z,74.11
2019-01-03T05:40:46.867Z,74.66
2019-01-03T05:43:58.866Z,74.42
2019-01-03T05:47:13.718Z,74.26
2019-01-03T05:50:35.669Z,74.37
2019-01-03T05:53:41.758Z,73.28
2019-01-03T05:56:57.863Z,72.95
2019-01-03T06:00:16.071Z,72.58
2019-01-03T06:03:22.243Z,72.76
2019-01-03T06:06:46.740Z,73.16
2019-01-03T06:09:55.637Z,72.73
2019-01-03T06:13:02.038Z,73.26
2019-01-03T06:16:24.783Z,73.79
2019-01-03T06:19:33.560Z,73.64
2019-01-03T06:22:58.082Z,73.98
2019-01-03T06:26:04.161Z,74.41
2019-01-03T06:29:13.354Z,74.77
2019-01-03T06:32:21.998Z,74.64
2019-01-03T06:35:28.399Z,74.65
2019-01-03T06:38:46.648Z,74.81
2019-01-03T06:41:55.198Z,74.78
2019-01-03T06:45:17.505Z,75.09
2019-01-03T06:48:33.013Z,75.07
2019-01-03T06:51:39.093Z,74.02
2019-01-03T06:54:56.750Z,73.83
2019-01-03T06:58:06.127Z,74.10
2019-01-03T07:01:28.675Z,73.33
2019-01-03T07:04:34.795Z,73.35
2019-01-03T07:07:59.538Z,73.87
2019-01-03T07:11:08.663Z,74.26
2019-01-03T07:14:23.584Z,74.44
2019-01-03T07:17:32.874Z,74.26
2019-01-03T07:20:41.391Z,74.05
2019-01-03T07:23:54.229Z,74.50
2019-01-03T07:27:16.767Z,74.61
2019-01-03T07:30:22.856Z,74.10
2019-01-03T07:33:45.482Z,74.63
2019-01-03T07:36:49.690Z,74.75
2019-01-03T07:40:12.249Z,74.65
2019-01-03T07:43:16.470Z,74.62
2019-01-03T07:46:29.489Z,74.69
2019-01-03T07:49:38.532Z,74.67
2019-01-03T07:53:01.000Z,74.78
2019-01-03T07:56:07.087Z,74.72
2019-01-03T07:59:11.295Z,73.82
2019-01-03T08:02:20.076Z,74.53
2019-01-03T08:05:26.450Z,74.36
2019-01-03T08:08:47.267Z,73.83
2019-01-03T08:12:05.497Z,73.19
2019-01-03T08:15:23.630Z,72.16
2019-01-03T08:18:30.019Z,72.21
2019-01-03T08:21:36.107Z,72.50
2019-01-03T08:24:47.916Z,72.43
2019-01-03T08:28:05.714Z,72.45
2019-01-03T08:31:17.567Z,71.75
2019-01-03T08:34:32.404Z,72.22
2019-01-03T08:37:38.486Z,72.18
2019-01-03T08:41:00.601Z,72.59
2019-01-03T08:44:09.371Z,71.37
2019-01-03T08:47:27.263Z,71.07
2019-01-03T08:50:36.472Z,71.45
2019-01-03T08:53:59.084Z,70.75
2019-01-03T08:57:19.960Z,71.16
2019-01-03T09:00:43.997Z,70.16
2019-01-03T09:03:59.038Z,70.54
2019-01-03T09:07:07.537Z,70.92
2019-01-03T09:10:29.953Z,71.53
2019-01-03T09:13:36.032Z,71.99
2019-01-03T09:16:47.914Z,71.67
2019-01-03T09:19:59.728Z,71.86
2019-01-03T09:23:22.138Z,71.48
2019-01-03T09:26:34.260Z,71.63
2019-01-03T09:29:40.337Z,71.72
2019-01-03T09:32:52.248Z,71.96
2019-01-03T09:36:07.081Z,72.57
2019-01-03T09:39:18.988Z,71.22
2019-01-03T09:42:23.200Z,69.52
2019-01-03T09:45:27.634Z,71.14
2019-01-03T09:48:32.083Z,71.12
2019-01-03T09:51:36.783Z,70.11
2019-01-03T09:54:41.216Z,68.93
2019-01-03T09:57:45.648Z,68.35
2019-01-03T10:00:50.362Z,66.64
2019-01-03T10:03:55.093Z,66.39
2019-01-03T10:06:59.546Z,66.60
2019-01-03T10:10:05.887Z,66.71
2019-01-03T10:13:10.618Z,66.22
2019-01-03T10:16:15.055Z,65.84
2019-01-03T10:19:19.485Z,64.89
2019-01-03T10:22:25.016Z,65.70
2019-01-03T10:25:29.744Z,65.21
2019-01-03T10:28:34.478Z,65.12
2019-01-03T10:31:38.913Z,64.13
2019-01-03T10:34:43.349Z,64.01
2019-01-03T10:37:47.794Z,63.33
2019-01-03T10:40:52.225Z,64.51
2019-01-03T10:43:56.663Z,65.36
2019-01-03T10:47:01.101Z,64.71
2019-01-03T10:50:08.087Z,64.25
2019-01-03T10:53:12.524Z,60.39
2019-01-03T10:56:17.255Z,59.53
2019-01-03T10:59:21.689Z,59.75
2019-01-03T11:02:26.128Z,57.20
2019-01-03T11:05:30.560Z,52.81
2019-01-03T11:08:35.259Z,53.11
2019-01-03T11:11:39.687Z,52.35
2019-01-03T11:14:44.421Z,53.51
2019-01-03T11:17:48.850Z,53.46
2019-01-03T11:20:53.290Z,55.40
2019-01-03T11:23:58.002Z,57.44
2019-01-03T11:27:02.436Z,57.97
2019-01-03T11:30:09.947Z,57.17
2019-01-03T11:33:16.834Z,57.95
2019-01-03T11:36:20.554Z,59.21
2019-01-03T11:39:24.998Z,60.07
2019-01-03T11:42:29.758Z,60.31
2019-01-03T11:45:34.189Z,59.96
2019-01-03T11:48:38.621Z,59.62
2019-01-03T11:51:43.050Z,60.01
2019-01-03T11:54:47.754Z,58.46
2019-01-03T11:57:52.190Z,59.76
2019-01-03T12:00:56.631Z,59.34
2019-01-03T12:04:01.341Z,59.25
2019-01-03T12:07:05.779Z,58.95
2019-01-03T12:10:10.489Z,60.24
2019-01-03T12:13:14.934Z,60.01
2019-01-03T12:16:19.361Z,59.52
2019-01-03T12:19:24.067Z,59.41
2019-01-03T12:22:28.497Z,60.28
2019-01-03T12:25:32.936Z,60.90
2019-01-03T12:28:37.646Z,61.56
2019-01-03T12:31:42.076Z,61.68
2019-01-03T12:34:47.666Z,60.82
2019-01-03T12:37:52.226Z,61.37
2019-01-03T12:40:56.980Z,62.01
2019-01-03T12:44:01.415Z,63.03
2019-01-03T12:47:06.137Z,63.02
2019-01-03T12:50:11.617Z,64.33
2019-01-03T12:53:16.311Z,64.71
2019-01-03T12:56:20.771Z,65.89
2019-01-03T12:59:25.195Z,66.71
2019-01-03T13:02:29.626Z,67.27
2019-01-03T13:05:34.066Z,67.92
2019-01-03T13:08:38.494Z,69.05
2019-01-03T13:11:42.935Z,69.43
2019-01-03T13:14:47.390Z,70.04
2019-01-03T13:17:51.824Z,70.77
2019-01-03T13:20:56.263Z,69.92
2019-01-03T13:24:00.955Z,70.46
2019-01-03T13:27:05.412Z,70.90
2019-01-03T13:30:11.212Z,70.42
2019-01-03T13:33:15.649Z,71.02
2019-01-03T13:36:20.388Z,72.04
2019-01-03T13:39:24.838Z,72.12
2019-01-03T13:42:29.267Z,73.11
2019-01-03T13:45:33.986Z,73.10
2019-01-03T13:48:38.418Z,73.62
2019-01-03T13:51:43.124Z,74.55
2019-01-03T13:54:47.569Z,74.42
2019-01-03T13:57:51.998Z,74.56
2019-01-03T14:00:56.700Z,74.38
2019-01-03T14:04:01.133Z,74.27
2019-01-03T14:07:05.854Z,74.89
2019-01-03T14:10:10.294Z,75.18
2019-01-03T14:13:14.729Z,75.20
2019-01-03T14:16:19.173Z,76.24
2019-01-03T14:19:23.601Z,76.14
2019-01-03T14:22:28.038Z,77.28
2019-01-03T14:25:32.804Z,77.35
2019-01-03T14:28:37.537Z,77.95
2019-01-03T14:31:42.263Z,78.05
2019-01-03T14:34:46.698Z,78.35
2019-01-03T14:37:51.135Z,77.97
2019-01-03T14:40:55.581Z,78.33
2019-01-03T14:44:00.018Z,78.93
2019-01-03T14:47:04.794Z,79.12
2019-01-03T14:50:10.973Z,79.16
2019-01-03T14:53:15.397Z,79.74
2019-01-03T14:56:19.842Z,79.54
2019-01-03T14:59:24.278Z,79.78
2019-01-03T15:02:28.721Z,79.59
2019-01-03T15:05:33.163Z,80.29
2019-01-03T15:08:37.600Z,81.08
2019-01-03T15:11:42.041Z,80.82
2019-01-03T15:14:46.756Z,81.25
2019-01-03T15:17:51.207Z,81.48
2019-01-03T15:20:55.648Z,81.87
2019-01-03T15:24:00.080Z,81.00
2019-01-03T15:27:04.868Z,81.03
2019-01-03T15:30:11.601Z,80.65
2019-01-03T15:33:16.044Z,79.84
2019-01-03T15:36:20.485Z,80.57
2019-01-03T15:39:24.917Z,80.73
2019-01-03T15:42:29.354Z,80.55
2019-01-03T15:45:33.802Z,80.27
2019-01-03T15:48:38.228Z,80.51
2019-01-03T15:51:42.674Z,80.04
2019-01-03T15:54:47.445Z,79.95
2019-01-03T15:57:51.887Z,79.75
2019-01-03T16:00:56.326Z,80.85
2019-01-03T16:04:00.761Z,80.70
2019-01-03T16:07:05.211Z,80.49
2019-01-03T16:10:09.711Z,80.69
2019-01-03T16:13:14.153Z,81.23
2019-01-03T16:16:18.596Z,80.60
2019-01-03T16:19:23.024Z,80.78
2019-01-03T16:22:27.763Z,80.49
2019-01-03T16:25:32.494Z,79.66
2019-01-03T16:28:36.935Z,79.35
2019-01-03T16:31:41.650Z,79.72
2019-01-03T16:34:46.081Z,79.58
2019-01-03T16:37:50.518Z,78.87
2019-01-03T16:40:55.225Z,79.03
2019-01-03T16:43:59.953Z,79.99
2019-01-03T16:47:04.698Z,80.47
2019-01-03T16:50:13.454Z,80.48
2019-01-03T16:53:17.905Z,80.58
2019-01-03T16:56:22.664Z,80.77
2019-01-03T16:59:27.099Z,80.89
2019-01-03T17:02:32.025Z,80.58
2019-01-03T17:05:36.461Z,81.20
2019-01-03T17:08:41.183Z,81.28
2019-01-03T17:11:45.627Z,81.57
2019-01-03T17:14:50.066Z,80.77
2019-01-03T17:17:54.508Z,81.22
2019-01-03T17:20:58.943Z,80.35
2019-01-03T17:24:03.387Z,80.71
2019-01-03T17:27:07.828Z,80.53
2019-01-03T17:30:12.863Z,80.92
2019-01-03T17:33:19.322Z,80.48
2019-01-03T17:36:23.465Z,80.85
2019-01-03T17:39:28.181Z,81.21
2019-01-03T17:42:32.619Z,81.24
2019-01-03T17:45:37.336Z,80.83
2019-01-03T17:48:42.064Z,80.97
2019-01-03T17:51:46.498Z,81.05
2019-01-03T17:54:51.219Z,80.96
2019-01-03T17:57:55.660Z,80.63
2019-01-03T18:01:00.373Z,81.25
2019-01-03T18:04:04.830Z,81.65
2019-01-03T18:07:09.530Z,81.45
2019-01-03T18:10:15.111Z,81.66
2019-01-03T18:13:19.628Z,81.94
2019-01-03T18:16:24.065Z,81.63
2019-01-03T18:19:28.863Z,81.72
2019-01-03T18:22:33.430Z,81.84
2019-01-03T18:25:37.934Z,81.37
2019-01-03T18:28:42.373Z,81.45
2019-01-03T18:31:46.817Z,81.24
2019-01-03T18:34:51.261Z,81.23
2019-01-03T18:37:56.889Z,81.70
2019-01-03T18:41:01.432Z,81.80
2019-01-03T18:44:06.822Z,81.99
2019-01-03T18:47:11.272Z,82.09
2019-01-03T18:50:18.921Z,81.65
2019-01-03T18:53:21.888Z,81.51
2019-01-03T18:56:26.327Z,81.52
2019-01-03T18:59:30.779Z,81.39
2019-01-03T19:02:35.209Z,81.24
2019-01-03T19:05:39.659Z,81.89
2019-01-03T19:08:44.103Z,82.11
2019-01-03T19:11:48.537Z,81.95
2019-01-03T19:14:53.295Z,81.42
2019-01-03T19:17:58.195Z,81.01
2019-01-03T19:21:02.869Z,80.90
2019-01-03T19:24:07.592Z,81.02
2019-01-03T19:27:12.083Z,81.10
2019-01-03T19:30:16.610Z,81.06
2019-01-03T19:33:21.142Z,80.26
2019-01-03T19:36:25.903Z,81.32
2019-01-03T19:39:30.629Z,83.46
2019-01-03T19:42:35.199Z,84.53
2019-01-03T19:45:39.900Z,85.26
2019-01-03T19:48:44.446Z,84.27
2019-01-03T19:51:49.140Z,84.44
2019-01-03T19:54:53.583Z,84.33
2019-01-03T19:57:58.020Z,83.34
2019-01-03T20:01:02.463Z,82.96
2019-01-03T20:04:06.920Z,82.73
2019-01-03T20:07:11.364Z,83.10
2019-01-03T20:10:15.878Z,83.27
2019-01-03T20:13:20.785Z,83.20
2019-01-03T20:16:25.231Z,83.11
2019-01-03T20:19:29.667Z,83.15
2019-01-03T20:22:34.116Z,83.24
2019-01-03T20:25:38.966Z,83.23
2019-01-03T20:28:43.663Z,83.15
2019-01-03T20:31:48.496Z,83.18
2019-01-03T20:34:52.967Z,83.33
2019-01-03T20:37:57.415Z,83.30
2019-01-03T20:41:02.181Z,83.13
2019-01-03T20:44:06.617Z,82.66
2019-01-03T20:47:11.441Z,82.74
2019-01-03T20:50:15.954Z,81.91
2019-01-03T20:53:20.403Z,81.45
2019-01-03T20:56:24.855Z,82.04
2019-01-03T20:59:29.639Z,83.12
2019-01-03T21:02:34.437Z,83.25
2019-01-03T21:05:38.907Z,83.39
2019-01-03T21:08:43.409Z,84.58
2019-01-03T21:11:47.869Z,85.11
2019-01-03T21:14:52.347Z,84.75
2019-01-03T21:17:56.756Z,84.24
2019-01-03T21:21:01.546Z,84.38
2019-01-03T21:24:06.256Z,84.27
2019-01-03T21:27:10.999Z,83.15
2019-01-03T21:30:18.334Z,82.59
2019-01-03T21:33:22.741Z,82.76
2019-01-03T21:36:27.276Z,82.12
2019-01-03T21:39:32.070Z,82.46
2019-01-03T21:42:36.511Z,82.73
2019-01-03T21:45:40.949Z,82.25
2019-01-03T21:48:45.463Z,82.32
2019-01-03T21:51:49.978Z,82.80
2019-01-03T21:54:54.485Z,82.49
2019-01-03T21:57:58.933Z,82.78
2019-01-03T22:01:03.397Z,82.64
2019-01-03T22:04:08.168Z,82.52
2019-01-03T22:07:12.611Z,81.98
2019-01-03T22:10:17.709Z,82.31
2019-01-03T22:13:22.195Z,82.86
2019-01-03T22:16:26.635Z,83.07
2019-01-03T22:19:31.766Z,82.82
2019-01-03T22:22:36.161Z,82.45
2019-01-03T22:25:40.599Z,82.29
2019-01-03T22:28:45.057Z,82.25
2019-01-03T22:31:49.881Z,81.90
2019-01-03T22:34:54.313Z,82.74
2019-01-03T22:37:59.069Z,82.58
2019-01-03T22:41:03.509Z,82.51
2019-01-03T22:44:07.952Z,83.07
2019-01-03T22:47:12.398Z,82.62
2019-01-03T22:50:16.833Z,82.40
2019-01-03T22:53:22.918Z,82.78
2019-01-03T22:56:27.352Z,82.58
2019-01-03T22:59:31.796Z,82.06
2019-01-03T23:02:36.508Z,82.70
2019-01-03T23:05:41.340Z,82.87
2019-01-03T23:08:45.788Z,83.05
2019-01-03T23:11:50.225Z,82.74
2019-01-03T23:14:54.671Z,82.07
2019-01-03T23:17:59.454Z,81.95
2019-01-03T23:21:03.886Z,82.12
2019-01-03T23:24:08.602Z,82.38
2019-01-03T23:27:13.332Z,81.97
2019-01-03T23:30:18.063Z,81.98
2019-01-03T23:33:25.765Z,81.90
2019-01-03T23:36:30.497Z,81.44
2019-01-03T23:39:34.933Z,81.51
2019-01-03T23:42:39.367Z,81.29
2019-01-03T23:45:43.808Z,81.96
2019-01-03T23:48:48.497Z,82.24
2019-01-03T23:51:52.928Z,81.54
2019-01-03T23:54:57.375Z,81.80
2019-01-03T23:58:01.815Z,81.22
